Time;durP1;ratioP1;P1;durP2;ratioP2;P2;SDS_P1;SDS_P2;PMS_P1;PMS_P2;Temp;Humidity;BMP_temperature;BMP_pressure;BME280_temperature;BME280_humidity;BME280_pressure;Samples;Min_cycle;Max_cycle;Signal;HPM_P1;HPM_P2
2022/12/04 00:01:13;;;;;;;24.10;12.40;;;2.50;99.90;;;;;;4996865;28;20210;-87
2022/12/04 00:03:40;;;;;;;21.07;11.87;;;2.50;99.90;;;;;;4996727;28;20269;-87
2022/12/04 00:06:08;;;;;;;20.37;11.87;;;2.50;99.90;;;;;;4996605;28;20206;-87
2022/12/04 00:08:34;;;;;;;21.43;12.27;;;2.40;99.90;;;;;;5012642;28;20182;-87
2022/12/04 00:11:02;;;;;;;21.50;12.00;;;2.40;99.90;;;;;;5012786;28;20719;-87
2022/12/04 00:13:28;;;;;;;21.70;12.23;;;2.40;99.90;;;;;;5009361;28;20186;-87
2022/12/04 00:15:53;;;;;;;21.57;12.87;;;2.40;99.90;;;;;;4997280;28;20207;-87
2022/12/04 00:18:20;;;;;;;22.87;13.00;;;2.30;99.90;;;;;;5004296;28;20640;-87
2022/12/04 00:20:46;;;;;;;24.03;12.43;;;2.30;99.90;;;;;;5005844;28;20282;-87
2022/12/04 00:23:13;;;;;;;24.13;12.80;;;2.20;99.90;;;;;;4984218;28;20181;-87
2022/12/04 00:25:39;;;;;;;23.07;12.80;;;2.30;99.90;;;;;;5002347;28;20207;-87
2022/12/04 00:28:05;;;;;;;20.73;12.33;;;2.30;99.90;;;;;;4996342;28;20190;-87
2022/12/04 00:30:31;;;;;;;22.03;12.07;;;2.30;99.90;;;;;;4995472;28;20180;-87
2022/12/04 00:32:57;;;;;;;25.10;13.13;;;2.30;99.90;;;;;;5012432;28;20182;-86
2022/12/04 00:35:24;;;;;;;21.23;12.17;;;2.40;99.90;;;;;;5011970;28;20175;-87
2022/12/04 00:37:50;;;;;;;24.57;13.10;;;2.40;99.90;;;;;;5012389;28;20267;-87
2022/12/04 00:40:16;;;;;;;23.57;12.17;;;2.40;99.90;;;;;;5012415;28;20243;-87
2022/12/04 00:42:42;;;;;;;23.57;13.03;;;2.40;99.90;;;;;;5012610;28;20214;-87
2022/12/04 00:45:08;;;;;;;21.37;12.80;;;2.40;99.90;;;;;;5011939;28;20182;-87
2022/12/04 00:47:34;;;;;;;23.47;12.20;;;2.40;99.90;;;;;;5012207;28;20203;-87
2022/12/04 00:50:00;;;;;;;23.80;12.47;;;2.40;99.90;;;;;;5012324;28;20178;-87
2022/12/04 00:52:27;;;;;;;24.00;12.60;;;2.40;99.90;;;;;;4995890;28;20251;-87
2022/12/04 00:54:53;;;;;;;24.50;13.50;;;2.30;99.90;;;;;;5012142;28;20298;-87
2022/12/04 00:57:19;;;;;;;25.10;13.03;;;2.30;99.90;;;;;;5011863;28;20210;-87
2022/12/04 00:59:45;;;;;;;23.50;13.07;;;2.30;99.90;;;;;;4995997;28;20189;-87
2022/12/04 01:02:11;;;;;;;23.20;13.70;;;2.30;99.90;;;;;;5028680;28;20211;-87
2022/12/04 01:04:37;;;;;;;23.73;13.37;;;2.30;99.90;;;;;;4995797;28;20211;-87
2022/12/04 01:07:02;;;;;;;25.67;14.23;;;2.30;99.90;;;;;;4995661;28;20198;-87
2022/12/04 01:09:28;;;;;;;25.63;14.67;;;2.30;99.90;;;;;;4995953;28;20171;-87
2022/12/04 01:11:54;;;;;;;25.10;13.70;;;2.40;99.90;;;;;;4995777;28;20194;-86
2022/12/04 01:14:20;;;;;;;25.63;13.97;;;2.40;99.90;;;;;;5012150;28;20194;-87
2022/12/04 01:16:46;;;;;;;23.77;13.43;;;2.40;99.90;;;;;;5011759;28;20199;-87
2022/12/04 01:19:12;;;;;;;21.70;12.77;;;2.40;99.90;;;;;;4995620;28;20251;-87
2022/12/04 01:21:39;;;;;;;24.23;13.20;;;2.40;99.90;;;;;;5015510;28;20206;-87
2022/12/04 01:24:05;;;;;;;23.57;13.27;;;2.40;99.90;;;;;;5015517;28;20187;-87
2022/12/04 01:26:31;;;;;;;25.00;14.23;;;2.40;99.90;;;;;;4999256;28;20203;-87
2022/12/04 01:28:57;;;;;;;23.20;12.73;;;2.40;99.90;;;;;;4998514;28;20190;-87
2022/12/04 01:31:48;;;;;;;24.97;13.10;;;2.40;99.90;;;;;;4999716;28;20183;-87
2022/12/04 01:34:14;;;;;;;22.63;12.23;;;2.40;99.90;;;;;;4999755;28;20187;-87
2022/12/04 01:36:39;;;;;;;24.37;13.60;;;2.40;99.90;;;;;;4999222;28;20210;-87
2022/12/04 01:39:05;;;;;;;24.57;13.27;;;2.40;99.90;;;;;;5015732;28;20197;-87
2022/12/04 01:41:31;;;;;;;22.37;12.77;;;2.40;99.90;;;;;;5015679;28;20207;-87
2022/12/04 01:44:11;;;;;;;24.10;12.77;;;2.40;99.90;;;;;;5015567;28;20179;-87
2022/12/04 01:46:38;;;;;;;25.30;13.13;;;2.40;99.90;;;;;;4999128;28;20246;-87
2022/12/04 01:49:08;;;;;;;22.10;12.90;;;2.30;99.90;;;;;;5015953;28;20206;-87
2022/12/04 01:51:39;;;;;;;25.00;13.57;;;2.40;99.90;;;;;;5015533;28;20229;-87
2022/12/04 01:54:10;;;;;;;23.80;13.40;;;2.40;99.90;;;;;;5015278;28;20195;-87
2022/12/04 01:56:51;;;;;;;25.53;13.57;;;2.40;99.90;;;;;;4999000;28;20211;-87
2022/12/04 01:59:20;;;;;;;24.10;13.27;;;2.40;99.90;;;;;;5013867;28;20183;-87
2022/12/04 02:01:56;;;;;;;24.03;13.57;;;2.40;99.90;;;;;;4996998;28;20211;-87
2022/12/04 02:04:22;;;;;;;24.37;12.90;;;2.40;99.90;;;;;;5014924;28;20178;-87
2022/12/04 02:06:48;;;;;;;21.33;12.17;;;2.40;99.90;;;;;;4998170;28;20203;-87
2022/12/04 02:09:14;;;;;;;23.07;13.10;;;2.50;99.90;;;;;;5015280;28;20264;-87
2022/12/04 02:11:44;;;;;;;24.13;12.83;;;2.50;99.90;;;;;;4998686;28;20549;-87
2022/12/04 02:14:23;;;;;;;25.70;13.70;;;2.40;99.90;;;;;;5014823;28;20179;-87
2022/12/04 02:17:15;;;;;;;22.93;13.53;;;2.40;99.90;;;;;;4998886;28;20202;-87
2022/12/04 02:20:16;;;;;;;23.87;13.60;;;2.40;99.90;;;;;;5015468;28;20187;-87
2022/12/04 02:23:33;;;;;;;21.80;12.03;;;2.40;99.90;;;;;;5014896;28;20196;-87
2022/12/04 02:26:17;;;;;;;23.90;12.67;;;2.40;99.90;;;;;;4915223;29;20214;-87
2022/12/04 02:28:49;;;;;;;21.77;12.83;;;2.40;99.90;;;;;;4995148;28;20172;-87
2022/12/04 02:31:21;;;;;;;24.53;13.43;;;2.40;99.90;;;;;;4988843;28;20191;-87
2022/12/04 02:34:13;;;;;;;22.83;12.87;;;2.50;99.90;;;;;;5013605;28;20183;-87
2022/12/04 02:36:50;;;;;;;22.83;12.50;;;2.40;99.90;;;;;;5014011;28;20209;-88
2022/12/04 02:39:29;;;;;;;23.87;13.60;;;2.40;99.90;;;;;;5014280;28;20171;-87
2022/12/04 02:42:17;;;;;;;21.80;12.47;;;2.40;99.90;;;;;;5014766;28;20212;-87
2022/12/04 02:44:48;;;;;;;23.17;13.53;;;2.40;99.90;;;;;;5014902;28;20175;-86
2022/12/04 02:47:19;;;;;;;25.97;13.90;;;2.40;99.90;;;;;;4998015;28;20278;-87
2022/12/04 02:49:50;;;;;;;21.90;12.27;;;2.40;99.90;;;;;;5014438;28;20251;-87
2022/12/04 02:52:20;;;;;;;21.53;12.93;;;2.40;99.90;;;;;;4998405;28;20179;-87
2022/12/04 02:54:53;;;;;;;24.27;13.47;;;2.40;99.90;;;;;;5014440;28;20281;-87
2022/12/04 02:57:30;;;;;;;24.67;13.53;;;2.40;99.90;;;;;;5014082;28;20211;-87
2022/12/04 02:59:57;;;;;;;23.43;13.60;;;2.40;99.90;;;;;;4998090;28;20178;-87
2022/12/04 03:02:59;;;;;;;23.87;13.27;;;2.40;99.90;;;;;;4997821;28;20282;-87
2022/12/04 03:05:32;;;;;;;20.60;12.77;;;2.50;99.90;;;;;;4997603;28;20183;-87
2022/12/04 03:08:08;;;;;;;22.77;12.13;;;2.50;99.90;;;;;;5014050;28;20179;-87
2022/12/04 03:10:39;;;;;;;22.47;12.63;;;2.50;99.90;;;;;;5014157;28;20174;-87
2022/12/04 03:13:18;;;;;;;25.03;12.70;;;2.50;99.90;;;;;;5014031;28;20234;-86
2022/12/04 03:15:58;;;;;;;23.17;13.00;;;2.50;99.90;;;;;;4997415;28;20198;-87
2022/12/04 03:18:40;;;;;;;23.10;12.73;;;2.50;99.90;;;;;;5013636;28;20179;-87
2022/12/04 03:21:14;;;;;;;22.27;12.97;;;2.50;99.90;;;;;;4997804;28;20214;-87
2022/12/04 03:23:47;;;;;;;20.03;12.10;;;2.50;99.90;;;;;;4997381;28;20206;-87
2022/12/04 03:26:25;;;;;;;21.97;11.77;;;2.50;99.90;;;;;;4997717;28;20233;-87
2022/12/04 03:28:59;;;;;;;23.13;12.57;;;2.50;99.90;;;;;;5013840;28;20253;-87
2022/12/04 03:35:27;;;;;;;21.93;11.40;;;2.50;99.90;;;;;;5010276;28;20203;-87
2022/12/04 03:38:02;;;;;;;20.07;12.03;;;2.50;99.90;;;;;;4993945;28;20207;-87
2022/12/04 03:40:36;;;;;;;20.60;11.40;;;2.50;99.90;;;;;;4994078;28;20190;-87
2022/12/04 03:43:12;;;;;;;21.37;12.40;;;2.50;99.90;;;;;;5005714;28;20278;-87
2022/12/04 03:45:56;;;;;;;22.50;12.87;;;2.50;99.90;;;;;;5012934;28;20238;-87
2022/12/04 03:48:37;;;;;;;21.43;12.43;;;2.50;99.90;;;;;;5013091;28;20179;-87
2022/12/04 03:51:26;;;;;;;19.57;11.97;;;2.50;99.90;;;;;;4997370;28;20211;-87
2022/12/04 03:53:56;;;;;;;21.93;12.17;;;2.50;99.90;;;;;;4984250;28;20199;-87
2022/12/04 03:56:28;;;;;;;22.87;12.37;;;2.50;99.90;;;;;;5013344;28;20218;-87
2022/12/04 03:59:04;;;;;;;19.47;12.17;;;2.50;99.90;;;;;;5029618;28;20180;-87
2022/12/04 04:01:37;;;;;;;21.87;11.80;;;2.60;99.90;;;;;;4996724;28;20199;-87
2022/12/04 04:04:08;;;;;;;22.27;13.13;;;2.60;99.90;;;;;;5013115;28;20175;-87
2022/12/04 04:06:39;;;;;;;21.43;12.43;;;2.60;99.90;;;;;;5012957;28;20290;-87
2022/12/04 04:09:11;;;;;;;21.10;12.07;;;2.50;99.90;;;;;;5013141;28;20175;-87
2022/12/04 04:11:47;;;;;;;19.97;12.57;;;2.60;99.90;;;;;;4993052;28;20176;-87
2022/12/04 04:25:44;;;;;;;20.73;12.13;;;2.60;99.90;;;;;;5012473;28;20214;-87
2022/12/04 04:28:39;;;;;;;20.40;11.90;;;2.60;99.90;;;;;;5012569;28;20190;-87
2022/12/04 04:31:51;;;;;;;20.80;12.50;;;2.50;99.90;;;;;;4996579;28;20241;-87
2022/12/04 04:34:42;;;;;;;19.47;11.97;;;2.60;99.90;;;;;;5012924;28;20171;-87
2022/12/04 04:37:39;;;;;;;19.90;11.97;;;2.60;99.90;;;;;;5012299;28;20225;-87
2022/12/04 04:40:23;;;;;;;21.03;12.40;;;2.50;99.90;;;;;;5012420;28;20187;-87
2022/12/04 04:42:51;;;;;;;22.23;12.60;;;2.50;99.90;;;;;;5011288;28;20199;-87
2022/12/04 04:45:22;;;;;;;23.33;12.23;;;2.50;99.90;;;;;;5012445;28;20180;-87
2022/12/04 04:47:54;;;;;;;24.07;14.03;;;2.50;99.90;;;;;;5011924;28;20179;-87
2022/12/04 04:50:40;;;;;;;23.90;13.43;;;2.50;99.90;;;;;;4996140;28;20181;-87
2022/12/04 04:53:13;;;;;;;22.70;12.43;;;2.50;99.90;;;;;;4996110;28;20214;-87
2022/12/04 04:55:39;;;;;;;22.97;13.10;;;2.50;99.90;;;;;;4995329;28;20179;-87
2022/12/04 04:58:17;;;;;;;22.80;13.23;;;2.50;99.90;;;;;;4995510;28;20179;-87
2022/12/04 05:00:52;;;;;;;21.90;11.97;;;2.50;99.90;;;;;;5012089;28;20183;-87
2022/12/04 05:03:18;;;;;;;18.33;11.00;;;2.50;99.90;;;;;;4995642;28;20198;-87
2022/12/04 05:05:43;;;;;;;19.67;11.30;;;2.50;99.90;;;;;;5012168;28;20233;-86
2022/12/04 05:08:09;;;;;;;20.83;11.90;;;2.50;99.90;;;;;;5012089;28;20168;-87
2022/12/04 05:10:35;;;;;;;20.60;12.20;;;2.50;99.90;;;;;;4995726;28;20175;-87
2022/12/04 05:13:01;;;;;;;17.47;11.47;;;2.60;99.90;;;;;;5011867;28;20179;-87
2022/12/04 05:15:27;;;;;;;19.53;11.73;;;2.50;99.90;;;;;;4996080;28;20187;-87
2022/12/04 05:17:53;;;;;;;21.50;11.83;;;2.50;99.90;;;;;;4995912;28;20588;-87
2022/12/04 05:20:19;;;;;;;20.37;12.00;;;2.50;99.90;;;;;;4996412;28;20190;-87
2022/12/04 05:22:45;;;;;;;20.20;11.33;;;2.50;99.90;;;;;;4995371;28;20257;-87
2022/12/04 05:25:10;;;;;;;18.10;11.20;;;2.50;99.90;;;;;;4995453;28;20201;-87
2022/12/04 05:27:36;;;;;;;21.60;11.30;;;2.50;99.90;;;;;;4995138;28;20714;-87
2022/12/04 05:30:04;;;;;;;18.70;11.07;;;2.50;99.90;;;;;;5010865;28;20198;-87
2022/12/04 05:32:29;;;;;;;20.43;12.20;;;2.50;99.90;;;;;;5012313;28;20183;-87
2022/12/04 05:34:56;;;;;;;21.17;11.70;;;2.50;99.90;;;;;;4995544;28;20183;-87
2022/12/04 05:37:22;;;;;;;20.20;11.83;;;2.50;99.90;;;;;;5012527;28;20198;-87
2022/12/04 05:39:48;;;;;;;20.20;11.20;;;2.50;99.90;;;;;;5010774;28;20179;-87
2022/12/04 05:42:14;;;;;;;18.87;11.30;;;2.50;99.90;;;;;;5009530;28;20279;-87
2022/12/04 05:44:40;;;;;;;19.93;11.50;;;2.50;99.90;;;;;;5017798;28;20156;-86
2022/12/04 05:47:06;;;;;;;18.83;11.07;;;2.60;99.90;;;;;;4995588;28;20204;-87
2022/12/04 05:49:33;;;;;;;19.20;11.00;;;2.60;99.90;;;;;;5012351;28;20184;-87
2022/12/04 05:52:00;;;;;;;18.73;11.77;;;2.50;99.90;;;;;;4995461;28;20191;-87
2022/12/04 05:54:25;;;;;;;20.80;11.97;;;2.50;99.90;;;;;;4995348;28;20195;-87
2022/12/04 05:56:51;;;;;;;16.97;11.13;;;2.60;99.90;;;;;;4995051;28;20748;-86
2022/12/04 05:59:17;;;;;;;18.37;11.30;;;2.60;99.90;;;;;;4995497;28;20270;-87
2022/12/04 06:01:44;;;;;;;17.93;10.73;;;2.50;99.90;;;;;;4995154;28;20215;-87
2022/12/04 06:04:10;;;;;;;16.87;10.20;;;2.60;99.90;;;;;;5011650;28;20191;-87
2022/12/04 06:06:37;;;;;;;17.93;11.30;;;2.60;99.90;;;;;;5012176;28;20210;-87
2022/12/04 06:09:04;;;;;;;17.90;10.57;;;2.60;99.90;;;;;;5015183;28;20266;-87
2022/12/04 06:11:33;;;;;;;16.70;10.53;;;2.60;99.90;;;;;;5015052;28;20599;-87
2022/12/04 06:14:00;;;;;;;16.70;10.20;;;2.50;99.90;;;;;;5015265;28;20187;-87
2022/12/04 06:16:30;;;;;;;16.97;9.93;;;2.50;99.90;;;;;;4998166;28;20207;-87
2022/12/04 06:18:58;;;;;;;17.47;10.90;;;2.40;99.90;;;;;;5014966;28;20183;-87
2022/12/04 06:21:26;;;;;;;16.40;10.07;;;2.40;99.90;;;;;;5015265;28;20213;-87
2022/12/04 06:23:53;;;;;;;19.13;10.60;;;2.50;99.90;;;;;;5015262;28;20214;-87
2022/12/04 06:26:19;;;;;;;19.40;10.43;;;2.50;99.90;;;;;;5014900;28;20596;-87
2022/12/04 06:28:45;;;;;;;17.53;10.80;;;2.50;99.90;;;;;;4998524;28;20175;-87
2022/12/04 06:31:25;;;;;;;17.37;10.20;;;2.40;99.90;;;;;;4998797;28;20182;-87
2022/12/04 06:33:55;;;;;;;14.67;9.53;;;2.40;99.90;;;;;;4995718;28;20226;-87
2022/12/04 06:36:22;;;;;;;16.33;9.60;;;2.40;99.90;;;;;;4995048;28;20194;-87
2022/12/04 06:38:48;;;;;;;21.00;11.23;;;2.40;99.90;;;;;;4994960;28;20648;-87
2022/12/04 06:41:20;;;;;;;19.43;11.07;;;2.40;99.90;;;;;;4996014;28;20214;-87
2022/12/04 06:43:47;;;;;;;17.07;10.23;;;2.40;99.90;;;;;;5011825;28;20267;-87
2022/12/04 06:46:17;;;;;;;16.07;10.33;;;2.40;99.90;;;;;;5014587;28;20241;-87
2022/12/04 06:48:44;;;;;;;18.63;11.00;;;2.40;99.90;;;;;;5014306;28;20193;-87
2022/12/04 06:51:24;;;;;;;17.13;10.23;;;2.40;99.90;;;;;;4998459;28;20259;-87
2022/12/04 06:53:51;;;;;;;19.43;10.93;;;2.40;99.90;;;;;;5014362;28;20230;-88
2022/12/04 06:56:19;;;;;;;17.53;10.93;;;2.40;99.90;;;;;;5014491;28;20203;-88
2022/12/04 06:58:47;;;;;;;17.43;10.70;;;2.40;99.90;;;;;;5014540;28;20194;-87
2022/12/04 07:01:16;;;;;;;16.10;10.20;;;2.40;99.90;;;;;;5014145;28;20806;-87
2022/12/04 07:03:42;;;;;;;18.90;10.57;;;2.30;99.90;;;;;;4997837;28;20281;-87
2022/12/04 07:06:13;;;;;;;16.17;10.13;;;2.30;99.90;;;;;;5014072;28;20743;-87
2022/12/04 07:08:39;;;;;;;22.97;12.47;;;2.30;99.90;;;;;;5014341;28;20271;-87
2022/12/04 07:11:05;;;;;;;22.47;13.97;;;2.20;99.90;;;;;;4997730;28;20211;-87
2022/12/04 07:13:30;;;;;;;23.37;12.80;;;2.20;99.90;;;;;;4997667;28;20221;-87
2022/12/04 07:16:00;;;;;;;21.53;13.33;;;2.10;99.90;;;;;;4997661;28;20202;-87
2022/12/04 07:18:26;;;;;;;23.00;14.90;;;2.10;99.90;;;;;;4996790;28;20183;-87
2022/12/04 07:20:52;;;;;;;20.37;12.53;;;2.10;99.90;;;;;;5013819;28;20178;-87
2022/12/04 07:23:18;;;;;;;20.27;11.67;;;2.10;99.90;;;;;;5013739;28;20171;-87
2022/12/04 07:25:44;;;;;;;20.80;12.23;;;2.10;99.90;;;;;;4997804;28;20212;-87
2022/12/04 07:28:10;;;;;;;20.43;12.20;;;2.10;99.90;;;;;;4997318;28;20272;-87
2022/12/04 07:30:37;;;;;;;22.03;12.20;;;2.10;99.90;;;;;;4997516;28;20171;-87
2022/12/04 07:33:03;;;;;;;20.80;11.73;;;2.20;99.90;;;;;;4997504;28;20179;-87
2022/12/04 07:35:30;;;;;;;19.63;11.27;;;2.20;99.90;;;;;;5013598;28;20186;-87
2022/12/04 07:37:57;;;;;;;21.10;11.63;;;2.20;99.90;;;;;;5013734;28;20266;-87
2022/12/04 07:40:23;;;;;;;21.73;13.37;;;2.30;99.90;;;;;;5013696;28;20182;-87
2022/12/04 07:42:49;;;;;;;22.53;12.50;;;2.30;99.90;;;;;;4993823;28;20216;-87
2022/12/04 07:45:15;;;;;;;21.63;12.20;;;2.30;99.90;;;;;;5003848;28;20190;-87
2022/12/04 07:47:41;;;;;;;20.57;12.97;;;2.30;99.90;;;;;;5013408;28;20210;-87
2022/12/04 07:50:07;;;;;;;20.10;12.10;;;2.30;99.90;;;;;;5013428;28;20167;-87
2022/12/04 07:52:37;;;;;;;18.03;11.30;;;2.30;99.90;;;;;;4997356;28;20244;-87
2022/12/04 07:55:08;;;;;;;18.57;11.40;;;2.30;99.90;;;;;;5013412;28;20191;-87
2022/12/04 07:57:33;;;;;;;23.10;11.57;;;2.30;99.90;;;;;;5012942;28;20269;-87
2022/12/04 07:59:59;;;;;;;19.03;11.33;;;2.40;99.90;;;;;;4996777;28;20206;-87
2022/12/04 08:02:26;;;;;;;18.30;11.33;;;2.40;99.90;;;;;;4996560;28;20316;-88
2022/12/04 08:04:51;;;;;;;19.23;12.30;;;2.40;99.90;;;;;;4996917;28;20179;-88
2022/12/04 08:07:17;;;;;;;19.63;11.60;;;2.50;99.90;;;;;;4996677;28;20202;-89
2022/12/04 08:09:43;;;;;;;21.47;11.60;;;2.50;99.90;;;;;;4996998;28;20190;-89
2022/12/04 08:12:09;;;;;;;19.73;11.97;;;2.50;99.90;;;;;;4996971;28;20282;-89
2022/12/04 08:14:35;;;;;;;22.93;11.97;;;2.50;99.90;;;;;;4996720;28;20180;-89
2022/12/04 08:17:01;;;;;;;19.43;11.50;;;2.50;99.90;;;;;;4996806;28;20199;-88
2022/12/04 08:19:27;;;;;;;20.70;12.07;;;2.60;99.90;;;;;;4996886;28;20171;-88
2022/12/04 08:21:54;;;;;;;18.27;10.87;;;2.50;99.90;;;;;;5012752;28;20213;-88
2022/12/04 08:24:20;;;;;;;20.07;12.17;;;2.60;99.90;;;;;;5012586;28;20237;-88
2022/12/04 08:26:46;;;;;;;17.67;10.50;;;2.50;99.90;;;;;;5012957;28;20237;-87
2022/12/04 08:29:12;;;;;;;20.53;11.40;;;2.60;99.90;;;;;;5012879;28;20207;-87
2022/12/04 08:31:38;;;;;;;20.40;11.20;;;2.60;99.90;;;;;;4996628;28;20183;-88
2022/12/04 08:34:06;;;;;;;17.80;10.60;;;2.60;99.90;;;;;;4996035;28;20206;-88
2022/12/04 08:36:44;;;;;;;16.43;10.83;;;2.60;99.90;;;;;;4996416;28;20203;-88
2022/12/04 08:39:12;;;;;;;19.00;11.10;;;2.50;99.90;;;;;;5012669;28;20179;-88
2022/12/04 08:41:41;;;;;;;18.93;10.40;;;2.40;99.90;;;;;;5012781;28;20209;-88
2022/12/04 08:44:08;;;;;;;21.53;12.57;;;2.50;99.90;;;;;;5012637;28;20246;-88
2022/12/04 08:46:38;;;;;;;17.77;11.17;;;2.40;99.90;;;;;;4996160;28;20203;-88
2022/12/04 08:49:04;;;;;;;17.73;10.93;;;2.50;99.90;;;;;;4995967;28;20237;-88
2022/12/04 08:51:33;;;;;;;17.07;10.53;;;2.50;99.90;;;;;;5012287;28;20217;-88
2022/12/04 08:54:02;;;;;;;17.77;10.03;;;2.50;99.90;;;;;;4995936;28;20285;-88
2022/12/04 08:56:30;;;;;;;19.13;10.67;;;2.60;99.90;;;;;;5011973;28;20211;-88
2022/12/04 08:58:57;;;;;;;20.73;11.73;;;2.60;99.90;;;;;;5012307;28;20186;-88
2022/12/04 09:01:24;;;;;;;17.83;10.20;;;2.60;99.90;;;;;;5012625;28;20262;-88
2022/12/04 09:03:50;;;;;;;18.47;11.10;;;2.60;99.90;;;;;;4992226;28;20202;-88
2022/12/04 09:06:17;;;;;;;18.10;10.60;;;2.60;99.90;;;;;;4992751;28;20195;-88
2022/12/04 09:08:43;;;;;;;19.37;11.43;;;2.60;99.90;;;;;;4980105;28;20229;-88
2022/12/04 09:11:13;;;;;;;14.63;9.87;;;2.70;99.90;;;;;;4996141;28;20218;-88
2022/12/04 09:13:41;;;;;;;25.03;14.23;;;2.70;99.90;;;;;;4995652;28;20171;-87
2022/12/04 09:16:10;;;;;;;22.70;13.70;;;2.70;99.90;;;;;;5012266;28;20223;-88
2022/12/04 09:18:37;;;;;;;24.73;14.43;;;2.60;99.90;;;;;;5011947;28;20190;-88
2022/12/04 09:21:06;;;;;;;22.90;13.33;;;2.70;99.90;;;;;;5012242;28;20207;-88
2022/12/04 09:23:33;;;;;;;19.30;11.83;;;2.70;99.90;;;;;;4995655;28;20258;-88
2022/12/04 09:25:59;;;;;;;18.57;11.03;;;2.70;99.90;;;;;;5011757;28;20199;-88
2022/12/04 09:28:28;;;;;;;17.43;11.03;;;2.70;99.90;;;;;;5002946;28;20184;-88
2022/12/04 09:31:04;;;;;;;17.93;10.57;;;2.70;99.90;;;;;;4992359;28;20180;-88
2022/12/04 09:33:30;;;;;;;17.73;10.27;;;2.70;99.90;;;;;;4992471;28;20194;-88
2022/12/04 09:36:00;;;;;;;18.90;10.13;;;2.70;99.90;;;;;;5026769;28;20210;-88
2022/12/04 09:38:27;;;;;;;16.30;9.40;;;2.80;99.90;;;;;;4995804;28;20183;-87
2022/12/04 09:41:21;;;;;;;16.50;10.07;;;2.80;99.90;;;;;;4995592;28;20172;-88
2022/12/04 09:44:02;;;;;;;14.60;9.73;;;2.80;99.90;;;;;;4999385;28;20185;-87
2022/12/04 09:46:34;;;;;;;16.20;10.40;;;2.80;99.90;;;;;;4999444;28;20210;-88
2022/12/04 09:49:05;;;;;;;16.80;10.20;;;2.80;99.90;;;;;;5015501;28;20187;-88
2022/12/04 09:51:33;;;;;;;15.23;9.87;;;2.90;99.90;;;;;;5016326;28;20183;-88
2022/12/04 09:54:16;;;;;;;15.87;10.23;;;2.90;99.90;;;;;;4999016;28;20481;-88
2022/12/04 09:56:47;;;;;;;22.83;12.27;;;2.90;99.90;;;;;;5014343;28;20664;-88
2022/12/04 09:59:21;;;;;;;17.97;11.43;;;2.90;99.90;;;;;;5003930;28;20176;-88
2022/12/04 10:02:21;;;;;;;18.90;11.83;;;3.00;99.90;;;;;;5006556;28;20226;-88
2022/12/04 10:04:47;;;;;;;23.80;14.53;;;3.00;99.90;;;;;;5013179;28;20179;-88
2022/12/04 10:07:36;;;;;;;30.60;17.17;;;3.00;99.90;;;;;;5005638;28;20199;-87
2022/12/04 10:10:18;;;;;;;29.87;17.43;;;3.00;99.90;;;;;;5007333;28;20171;-88
2022/12/04 10:13:03;;;;;;;34.60;21.67;;;3.00;99.90;;;;;;5013221;28;20262;-88
2022/12/04 10:16:02;;;;;;;22.53;13.87;;;3.00;99.90;;;;;;4979158;28;20339;-88
2022/12/04 10:18:53;;;;;;;21.50;13.23;;;3.00;99.90;;;;;;4985434;28;20227;-88
2022/12/04 10:21:34;;;;;;;17.87;10.73;;;3.10;99.90;;;;;;4986136;28;20203;-88
2022/12/04 10:24:21;;;;;;;15.53;10.10;;;3.00;99.90;;;;;;4997950;28;20175;-88
2022/12/04 10:26:48;;;;;;;13.37;8.87;;;3.10;99.90;;;;;;5000439;28;20212;-88
2022/12/04 10:29:29;;;;;;;17.90;10.53;;;3.10;99.90;;;;;;5006067;28;20183;-88
2022/12/04 10:32:14;;;;;;;19.30;10.23;;;3.00;99.90;;;;;;4978341;28;20318;-88
2022/12/04 10:34:46;;;;;;;16.73;10.43;;;3.00;99.90;;;;;;5001250;28;20202;-88
2022/12/04 10:37:14;;;;;;;16.23;10.17;;;2.90;99.90;;;;;;5008723;28;20291;-87
2022/12/04 10:40:01;;;;;;;34.80;15.00;;;3.00;99.90;;;;;;4978846;28;20188;-88
2022/12/04 10:42:37;;;;;;;28.03;11.63;;;3.00;99.90;;;;;;4999786;28;20203;-88
2022/12/04 10:45:06;;;;;;;20.63;10.90;;;3.10;99.90;;;;;;5014674;28;20179;-88
2022/12/04 10:47:33;;;;;;;16.90;10.73;;;3.10;99.90;;;;;;4978692;28;20680;-88
2022/12/04 10:50:15;;;;;;;16.30;9.93;;;3.10;99.90;;;;;;4996223;28;20174;-88
2022/12/04 10:52:41;;;;;;;16.63;9.83;;;3.10;99.90;;;;;;4965020;28;20187;-88
2022/12/04 10:55:09;;;;;;;35.73;15.37;;;3.10;99.90;;;;;;4997664;28;20218;-88
2022/12/04 10:57:43;;;;;;;85.13;24.50;;;3.10;99.90;;;;;;5013534;28;20211;-88
2022/12/04 11:00:26;;;;;;;47.33;17.00;;;3.20;99.90;;;;;;4998068;28;20261;-88
2022/12/04 11:02:56;;;;;;;21.07;11.10;;;3.20;99.90;;;;;;5027616;28;20211;-88
2022/12/04 11:05:32;;;;;;;28.03;14.40;;;3.20;99.90;;;;;;5014301;28;20274;-88
2022/12/04 11:08:00;;;;;;;28.20;15.40;;;3.20;99.90;;;;;;5014040;28;20183;-88
2022/12/04 11:10:42;;;;;;;23.73;13.83;;;3.20;99.90;;;;;;5014369;28;20687;-88
2022/12/04 11:13:11;;;;;;;17.13;11.13;;;3.20;99.90;;;;;;4997781;28;20189;-88
2022/12/04 11:15:49;;;;;;;18.73;12.33;;;3.20;99.90;;;;;;5013935;28;20176;-88
2022/12/04 11:18:19;;;;;;;35.60;22.03;;;3.30;99.90;;;;;;5014193;28;20182;-88
2022/12/04 11:20:59;;;;;;;26.77;15.90;;;3.20;99.90;;;;;;5014218;28;20172;-88
2022/12/04 11:23:28;;;;;;;19.77;11.37;;;3.30;99.90;;;;;;5006755;28;20191;-88
2022/12/04 11:25:57;;;;;;;16.40;10.27;;;3.20;99.90;;;;;;4978038;28;20192;-88
2022/12/04 11:28:29;;;;;;;17.13;10.90;;;3.10;99.90;;;;;;4981712;28;20175;-88
2022/12/04 11:31:00;;;;;;;14.60;9.30;;;3.10;99.90;;;;;;4997576;28;20180;-88
2022/12/04 11:33:29;;;;;;;16.07;9.90;;;3.10;99.90;;;;;;5013944;28;20217;-88
2022/12/04 11:35:58;;;;;;;20.63;12.73;;;3.20;99.90;;;;;;4997650;28;20205;-88
2022/12/04 11:38:26;;;;;;;19.53;12.93;;;3.20;99.90;;;;;;5014398;28;20199;-87
2022/12/04 11:40:57;;;;;;;17.57;10.70;;;3.20;99.90;;;;;;4997373;28;20175;-88
2022/12/04 11:43:28;;;;;;;19.60;11.57;;;3.30;99.90;;;;;;5013454;28;20245;-88
2022/12/04 11:45:58;;;;;;;17.03;10.90;;;3.30;99.90;;;;;;4997159;28;20195;-88
2022/12/04 11:48:25;;;;;;;18.53;11.10;;;3.30;99.90;;;;;;4997001;28;20274;-88
2022/12/04 11:51:06;;;;;;;16.23;10.87;;;3.30;99.90;;;;;;4997275;28;20633;-88
2022/12/04 11:53:44;;;;;;;18.33;11.17;;;3.30;99.90;;;;;;5013140;28;20195;-88
2022/12/04 11:56:33;;;;;;;17.90;11.17;;;3.20;99.90;;;;;;4993743;28;20207;-88
2022/12/04 11:59:11;;;;;;;17.43;10.47;;;3.20;99.90;;;;;;5012766;28;20226;-88
2022/12/04 12:01:45;;;;;;;32.77;19.80;;;3.20;99.90;;;;;;5014170;28;20207;-88
2022/12/04 12:04:23;;;;;;;25.27;13.63;;;3.20;99.90;;;;;;4983921;28;20184;-87
2022/12/04 12:07:15;;;;;;;19.47;11.77;;;3.30;99.90;;;;;;4976886;28;20206;-88
2022/12/04 12:09:59;;;;;;;23.03;13.40;;;3.30;99.90;;;;;;4977772;28;20264;-87
2022/12/04 12:12:31;;;;;;;20.63;13.57;;;3.30;99.90;;;;;;4993653;28;20299;-87
2022/12/04 12:15:09;;;;;;;18.57;11.40;;;3.20;99.90;;;;;;4980418;28;20195;-87
2022/12/04 12:17:42;;;;;;;15.07;10.00;;;3.20;99.90;;;;;;5009237;28;20257;-88
2022/12/04 12:20:36;;;;;;;15.27;9.90;;;3.20;99.90;;;;;;5012802;28;20294;-88
2022/12/04 12:23:15;;;;;;;15.57;10.37;;;3.30;99.90;;;;;;5013460;28;20206;-87
2022/12/04 12:26:06;;;;;;;17.80;10.70;;;3.30;99.90;;;;;;5012918;28;20202;-87
2022/12/04 12:29:12;;;;;;;15.20;10.00;;;3.30;99.90;;;;;;5012789;28;20182;-88
2022/12/04 12:32:06;;;;;;;16.07;10.30;;;3.30;99.90;;;;;;4972492;28;20195;-88
2022/12/04 12:34:41;;;;;;;16.93;9.83;;;3.30;99.90;;;;;;4992023;28;20246;-88
2022/12/04 12:37:38;;;;;;;17.13;10.53;;;3.30;99.90;;;;;;4976737;28;20254;-87
2022/12/04 12:40:20;;;;;;;15.73;9.60;;;3.30;99.90;;;;;;4995751;28;20172;-87
2022/12/04 12:42:56;;;;;;;14.73;9.40;;;3.30;99.90;;;;;;4976997;28;20211;-87
2022/12/04 12:45:44;;;;;;;16.03;8.50;;;3.30;99.90;;;;;;4976796;28;20180;-88
2022/12/04 12:48:50;;;;;;;12.87;8.53;;;3.30;99.90;;;;;;4992801;28;20175;-87
2022/12/04 12:51:57;;;;;;;14.90;9.10;;;3.30;99.90;;;;;;4976706;28;20195;-88
2022/12/04 12:54:38;;;;;;;13.80;9.63;;;3.20;99.90;;;;;;4994531;28;20246;-88
2022/12/04 12:57:10;;;;;;;15.20;9.73;;;3.20;99.90;;;;;;4990510;28;20210;-87
2022/12/04 12:59:41;;;;;;;16.40;9.50;;;3.20;99.90;;;;;;5012419;28;20183;-87
2022/12/04 13:02:19;;;;;;;14.37;9.37;;;3.20;99.90;;;;;;4996008;28;20301;-87
2022/12/04 13:04:49;;;;;;;16.00;9.90;;;3.30;99.90;;;;;;4996172;28;20178;-87
2022/12/04 13:07:38;;;;;;;15.33;9.30;;;3.30;99.90;;;;;;4993219;28;20238;-87
2022/12/04 13:10:56;;;;;;;17.03;9.57;;;3.30;99.90;;;;;;5028630;28;20183;-87
2022/12/04 13:13:31;;;;;;;17.87;10.43;;;3.20;99.90;;;;;;4968019;28;20188;-87
2022/12/04 13:16:18;;;;;;;15.80;9.90;;;3.20;99.90;;;;;;4976147;28;20303;-87
2022/12/04 13:19:17;;;;;;;17.77;10.00;;;3.20;99.90;;;;;;4996415;28;20164;-80
2022/12/04 13:21:43;;;;;;;17.97;10.37;;;3.20;99.90;;;;;;5013327;28;20195;-87